sensor_id;sensor_type;location;lat;lon;timestamp;pressure;altitude;pressure_sealevel;temperature;humidity
13209;BME280;6669;42.678;23.332;2022-10-16T00:01:37;95093.72;;;8.73;100.00
13209;BME280;6669;42.678;23.332;2022-10-16T00:04:05;95093.72;;;8.73;100.00
13209;BME280;6669;42.678;23.332;2022-10-16T00:06:33;95099.31;;;8.69;100.00
13209;BME280;6669;42.678;23.332;2022-10-16T00:09:01;95096.91;;;8.67;100.00
13209;BME280;6669;42.678;23.332;2022-10-16T00:11:33;95094.47;;;8.65;100.00
13209;BME280;6669;42.678;23.332;2022-10-16T00:14:05;95095.16;;;8.58;100.00
13209;BME280;6669;42.678;23.332;2022-10-16T00:16:34;95093.03;;;8.53;100.00
13209;BME280;6669;42.678;23.332;2022-10-16T00:19:02;95104.13;;;8.45;100.00
13209;BME280;6669;42.678;23.332;2022-10-16T00:21:31;95103.69;;;8.50;100.00
13209;BME280;6669;42.678;23.332;2022-10-16T00:24:01;95098.19;;;8.35;100.00
13209;BME280;6669;42.678;23.332;2022-10-16T00:26:32;95106.59;;;8.37;100.00
13209;BME280;6669;42.678;23.332;2022-10-16T00:29:01;95103.47;;;8.33;100.00
13209;BME280;6669;42.678;23.332;2022-10-16T00:31:29;95114.09;;;8.40;100.00
13209;BME280;6669;42.678;23.332;2022-10-16T00:33:57;95115.59;;;8.43;100.00
13209;BME280;6669;42.678;23.332;2022-10-16T00:36:26;95118.03;;;8.44;100.00
13209;BME280;6669;42.678;23.332;2022-10-16T00:38:56;95120.75;;;8.43;100.00
13209;BME280;6669;42.678;23.332;2022-10-16T00:41:26;95111.50;;;8.40;100.00
13209;BME280;6669;42.678;23.332;2022-10-16T00:43:57;95112.72;;;8.46;100.00
13209;BME280;6669;42.678;23.332;2022-10-16T00:46:27;95109.88;;;8.39;100.00
13209;BME280;6669;42.678;23.332;2022-10-16T00:48:59;95106.97;;;8.42;100.00
13209;BME280;6669;42.678;23.332;2022-10-16T00:51:31;95105.38;;;8.41;100.00
13209;BME280;6669;42.678;23.332;2022-10-16T00:54:02;95106.44;;;8.39;100.00
13209;BME280;6669;42.678;23.332;2022-10-16T00:56:41;95094.22;;;8.31;100.00
13209;BME280;6669;42.678;23.332;2022-10-16T00:59:15;95100.41;;;8.30;100.00
13209;BME280;6669;42.678;23.332;2022-10-16T01:01:44;95104.16;;;8.35;100.00
13209;BME280;6669;42.678;23.332;2022-10-16T01:04:12;95110.44;;;8.33;100.00
13209;BME280;6669;42.678;23.332;2022-10-16T01:06:45;95109.78;;;8.31;100.00
13209;BME280;6669;42.678;23.332;2022-10-16T01:09:21;95112.09;;;8.34;100.00
13209;BME280;6669;42.678;23.332;2022-10-16T01:11:59;95119.75;;;8.26;100.00
13209;BME280;6669;42.678;23.332;2022-10-16T01:14:39;95114.19;;;8.21;100.00
13209;BME280;6669;42.678;23.332;2022-10-16T01:17:12;95119.69;;;8.17;100.00
13209;BME280;6669;42.678;23.332;2022-10-16T01:20:07;95112.06;;;8.16;100.00
13209;BME280;6669;42.678;23.332;2022-10-16T01:22:43;95107.59;;;8.08;100.00
13209;BME280;6669;42.678;23.332;2022-10-16T01:25:22;95103.53;;;8.06;100.00
13209;BME280;6669;42.678;23.332;2022-10-16T01:27:54;95098.63;;;8.02;100.00
13209;BME280;6669;42.678;23.332;2022-10-16T01:30:25;95098.09;;;7.99;100.00
13209;BME280;6669;42.678;23.332;2022-10-16T01:32:58;95103.00;;;8.02;100.00
13209;BME280;6669;42.678;23.332;2022-10-16T01:35:28;95100.97;;;7.96;100.00
13209;BME280;6669;42.678;23.332;2022-10-16T01:38:02;95107.25;;;7.93;100.00
13209;BME280;6669;42.678;23.332;2022-10-16T01:40:33;95097.34;;;7.89;100.00
13209;BME280;6669;42.678;23.332;2022-10-16T01:43:06;95105.47;;;7.94;100.00
13209;BME280;6669;42.678;23.332;2022-10-16T01:45:36;95096.22;;;7.91;100.00
13209;BME280;6669;42.678;23.332;2022-10-16T01:48:06;95108.91;;;7.94;100.00
13209;BME280;6669;42.678;23.332;2022-10-16T01:50:38;95109.72;;;7.85;100.00
13209;BME280;6669;42.678;23.332;2022-10-16T01:53:08;95113.31;;;7.84;100.00
13209;BME280;6669;42.678;23.332;2022-10-16T01:55:41;95112.13;;;7.68;100.00
13209;BME280;6669;42.678;23.332;2022-10-16T01:58:13;95121.38;;;7.71;100.00
13209;BME280;6669;42.678;23.332;2022-10-16T02:00:44;95117.72;;;7.64;100.00
13209;BME280;6669;42.678;23.332;2022-10-16T02:03:14;95113.94;;;7.58;100.00
13209;BME280;6669;42.678;23.332;2022-10-16T02:05:46;95116.25;;;7.51;100.00
13209;BME280;6669;42.678;23.332;2022-10-16T02:08:14;95119.16;;;7.39;100.00
13209;BME280;6669;42.678;23.332;2022-10-16T02:10:42;95119.81;;;7.41;100.00
13209;BME280;6669;42.678;23.332;2022-10-16T02:13:15;95116.13;;;7.43;100.00
13209;BME280;6669;42.678;23.332;2022-10-16T02:15:44;95129.06;;;7.43;100.00
13209;BME280;6669;42.678;23.332;2022-10-16T02:18:13;95126.91;;;7.48;100.00
13209;BME280;6669;42.678;23.332;2022-10-16T02:20:54;95134.78;;;7.47;100.00
13209;BME280;6669;42.678;23.332;2022-10-16T02:23:29;95135.88;;;7.44;100.00
13209;BME280;6669;42.678;23.332;2022-10-16T02:26:04;95134.25;;;7.43;100.00
13209;BME280;6669;42.678;23.332;2022-10-16T02:28:40;95123.25;;;7.31;100.00
13209;BME280;6669;42.678;23.332;2022-10-16T02:31:11;95117.81;;;7.25;100.00
13209;BME280;6669;42.678;23.332;2022-10-16T02:33:42;95133.75;;;7.30;100.00
13209;BME280;6669;42.678;23.332;2022-10-16T02:36:11;95135.25;;;7.23;100.00
13209;BME280;6669;42.678;23.332;2022-10-16T02:38:40;95141.25;;;7.23;100.00
13209;BME280;6669;42.678;23.332;2022-10-16T02:41:08;95137.44;;;7.17;100.00
13209;BME280;6669;42.678;23.332;2022-10-16T02:43:38;95139.06;;;7.18;100.00
13209;BME280;6669;42.678;23.332;2022-10-16T02:46:06;95139.47;;;7.24;100.00
13209;BME280;6669;42.678;23.332;2022-10-16T02:48:34;95136.63;;;7.17;100.00
13209;BME280;6669;42.678;23.332;2022-10-16T02:51:02;95150.63;;;7.14;100.00
13209;BME280;6669;42.678;23.332;2022-10-16T02:53:31;95148.59;;;7.08;100.00
13209;BME280;6669;42.678;23.332;2022-10-16T02:55:59;95154.31;;;7.02;100.00
13209;BME280;6669;42.678;23.332;2022-10-16T02:58:27;95146.16;;;6.97;100.00
13209;BME280;6669;42.678;23.332;2022-10-16T03:00:56;95151.31;;;6.97;100.00
13209;BME280;6669;42.678;23.332;2022-10-16T03:03:24;95149.53;;;6.97;100.00
13209;BME280;6669;42.678;23.332;2022-10-16T03:05:52;95148.75;;;6.97;100.00
13209;BME280;6669;42.678;23.332;2022-10-16T03:08:20;95151.88;;;6.91;100.00
13209;BME280;6669;42.678;23.332;2022-10-16T03:10:50;95162.59;;;6.96;100.00
13209;BME280;6669;42.678;23.332;2022-10-16T03:13:18;95152.28;;;6.86;100.00
13209;BME280;6669;42.678;23.332;2022-10-16T03:15:47;95161.53;;;6.89;100.00
13209;BME280;6669;42.678;23.332;2022-10-16T03:18:16;95162.06;;;6.82;100.00
13209;BME280;6669;42.678;23.332;2022-10-16T03:20:45;95165.84;;;6.78;100.00
13209;BME280;6669;42.678;23.332;2022-10-16T03:23:13;95171.16;;;6.77;100.00
13209;BME280;6669;42.678;23.332;2022-10-16T03:25:41;95160.97;;;6.75;100.00
13209;BME280;6669;42.678;23.332;2022-10-16T03:28:09;95164.78;;;6.71;100.00
13209;BME280;6669;42.678;23.332;2022-10-16T03:30:37;95166.69;;;6.69;100.00
13209;BME280;6669;42.678;23.332;2022-10-16T03:33:06;95169.53;;;6.66;100.00
13209;BME280;6669;42.678;23.332;2022-10-16T03:35:35;95169.53;;;6.66;100.00
13209;BME280;6669;42.678;23.332;2022-10-16T03:38:03;95164.78;;;6.71;100.00
13209;BME280;6669;42.678;23.332;2022-10-16T03:40:31;95169.13;;;6.70;100.00
13209;BME280;6669;42.678;23.332;2022-10-16T03:42:59;95166.28;;;6.74;100.00
13209;BME280;6669;42.678;23.332;2022-10-16T03:45:27;95174.84;;;6.74;100.00
13209;BME280;6669;42.678;23.332;2022-10-16T03:47:55;95162.34;;;6.69;100.00
13209;BME280;6669;42.678;23.332;2022-10-16T03:50:23;95169.00;;;6.72;100.00
13209;BME280;6669;42.678;23.332;2022-10-16T03:52:53;95165.44;;;6.73;100.00
13209;BME280;6669;42.678;23.332;2022-10-16T03:55:21;95160.16;;;6.65;100.00
13209;BME280;6669;42.678;23.332;2022-10-16T03:57:49;95151.59;;;6.54;100.00
13209;BME280;6669;42.678;23.332;2022-10-16T04:00:17;95155.13;;;6.63;100.00
13209;BME280;6669;42.678;23.332;2022-10-16T04:02:45;95158.25;;;6.57;100.00
13209;BME280;6669;42.678;23.332;2022-10-16T04:05:13;95161.06;;;6.54;100.00
13209;BME280;6669;42.678;23.332;2022-10-16T04:07:41;95153.19;;;6.46;100.00
13209;BME280;6669;42.678;23.332;2022-10-16T04:10:10;95158.78;;;6.51;100.00
13209;BME280;6669;42.678;23.332;2022-10-16T04:12:38;95153.72;;;6.40;100.00
13209;BME280;6669;42.678;23.332;2022-10-16T04:15:07;95168.31;;;6.50;100.00
13209;BME280;6669;42.678;23.332;2022-10-16T04:17:36;95168.28;;;6.60;100.00
13209;BME280;6669;42.678;23.332;2022-10-16T04:20:05;95159.19;;;6.56;100.00
13209;BME280;6669;42.678;23.332;2022-10-16T04:22:33;95161.25;;;6.62;100.00
13209;BME280;6669;42.678;23.332;2022-10-16T04:25:01;95168.72;;;6.65;100.00
13209;BME280;6669;42.678;23.332;2022-10-16T04:27:31;95171.28;;;6.65;100.00
13209;BME280;6669;42.678;23.332;2022-10-16T04:29:59;95163.13;;;6.60;100.00
13209;BME280;6669;42.678;23.332;2022-10-16T04:32:27;95168.72;;;6.56;100.00
13209;BME280;6669;42.678;23.332;2022-10-16T04:34:55;95184.06;;;6.57;100.00
13209;BME280;6669;42.678;23.332;2022-10-16T04:37:23;95173.22;;;6.63;100.00
13209;BME280;6669;42.678;23.332;2022-10-16T04:39:52;95184.34;;;6.64;100.00
13209;BME280;6669;42.678;23.332;2022-10-16T04:42:20;95182.72;;;6.63;100.00
13209;BME280;6669;42.678;23.332;2022-10-16T04:44:50;95189.50;;;6.54;100.00
13209;BME280;6669;42.678;23.332;2022-10-16T04:47:18;95192.22;;;6.52;100.00
13209;BME280;6669;42.678;23.332;2022-10-16T04:49:46;95187.56;;;6.46;100.00
13209;BME280;6669;42.678;23.332;2022-10-16T04:52:14;95196.00;;;6.48;100.00
13209;BME280;6669;42.678;23.332;2022-10-16T04:54:42;95202.50;;;6.43;100.00
13209;BME280;6669;42.678;23.332;2022-10-16T04:57:11;95198.31;;;6.42;100.00
13209;BME280;6669;42.678;23.332;2022-10-16T04:59:39;95204.28;;;6.42;100.00
13209;BME280;6669;42.678;23.332;2022-10-16T05:02:09;95207.94;;;6.40;100.00
13209;BME280;6669;42.678;23.332;2022-10-16T05:04:37;95218.44;;;6.48;100.00
13209;BME280;6669;42.678;23.332;2022-10-16T05:07:05;95193.00;;;6.43;100.00
13209;BME280;6669;42.678;23.332;2022-10-16T05:09:33;95214.22;;;6.57;100.00
13209;BME280;6669;42.678;23.332;2022-10-16T05:12:01;95216.16;;;6.54;100.00
13209;BME280;6669;42.678;23.332;2022-10-16T05:14:30;95208.69;;;6.61;100.00
13209;BME280;6669;42.678;23.332;2022-10-16T05:17:00;95220.09;;;6.59;100.00
13209;BME280;6669;42.678;23.332;2022-10-16T05:19:29;95212.03;;;6.42;100.00
13209;BME280;6669;42.678;23.332;2022-10-16T05:21:57;95223.19;;;6.52;100.00
13209;BME280;6669;42.678;23.332;2022-10-16T05:24:26;95228.50;;;6.51;100.00
13209;BME280;6669;42.678;23.332;2022-10-16T05:26:54;95228.59;;;6.40;100.00
13209;BME280;6669;42.678;23.332;2022-10-16T05:29:23;95228.47;;;6.41;100.00
13209;BME280;6669;42.678;23.332;2022-10-16T05:31:51;95226.41;;;6.35;100.00
13209;BME280;6669;42.678;23.332;2022-10-16T05:34:20;95229.69;;;6.37;100.00
13209;BME280;6669;42.678;23.332;2022-10-16T05:36:50;95216.91;;;6.35;100.00
13209;BME280;6669;42.678;23.332;2022-10-16T05:39:18;95229.84;;;6.45;100.00
13209;BME280;6669;42.678;23.332;2022-10-16T05:41:49;95233.13;;;6.47;100.00
13209;BME280;6669;42.678;23.332;2022-10-16T05:44:17;95214.47;;;6.44;100.00
13209;BME280;6669;42.678;23.332;2022-10-16T05:46:46;95229.88;;;6.55;100.00
13209;BME280;6669;42.678;23.332;2022-10-16T05:49:14;95230.97;;;6.62;100.00
13209;BME280;6669;42.678;23.332;2022-10-16T05:51:42;95239.41;;;6.64;100.00
13209;BME280;6669;42.678;23.332;2022-10-16T05:54:12;95241.47;;;6.70;100.00
13209;BME280;6669;42.678;23.332;2022-10-16T05:56:40;95232.22;;;6.68;100.00
13209;BME280;6669;42.678;23.332;2022-10-16T05:59:08;95243.94;;;6.82;100.00
13209;BME280;6669;42.678;23.332;2022-10-16T06:01:36;95239.84;;;6.79;100.00
13209;BME280;6669;42.678;23.332;2022-10-16T06:04:05;95255.78;;;6.94;100.00
13209;BME280;6669;42.678;23.332;2022-10-16T06:06:33;95255.41;;;6.99;100.00
13209;BME280;6669;42.678;23.332;2022-10-16T06:09:03;95256.06;;;7.01;100.00
13209;BME280;6669;42.678;23.332;2022-10-16T06:11:33;95255.94;;;7.02;100.00
13209;BME280;6669;42.678;23.332;2022-10-16T06:14:02;95271.22;;;7.15;100.00
13209;BME280;6669;42.678;23.332;2022-10-16T06:16:34;95265.59;;;7.20;100.00
13209;BME280;6669;42.678;23.332;2022-10-16T06:19:03;95278.56;;;7.30;100.00
13209;BME280;6669;42.678;23.332;2022-10-16T06:21:33;95265.63;;;7.30;100.00
13209;BME280;6669;42.678;23.332;2022-10-16T06:24:01;95277.47;;;7.42;100.00
13209;BME280;6669;42.678;23.332;2022-10-16T06:26:30;95277.34;;;7.53;100.00
13209;BME280;6669;42.678;23.332;2022-10-16T06:29:00;95280.03;;;7.62;100.00
13209;BME280;6669;42.678;23.332;2022-10-16T06:31:29;95278.16;;;7.64;100.00
13209;BME280;6669;42.678;23.332;2022-10-16T06:34:00;95276.63;;;7.81;100.00
13209;BME280;6669;42.678;23.332;2022-10-16T06:36:31;95285.63;;;7.87;100.00
13209;BME280;6669;42.678;23.332;2022-10-16T06:38:59;95289.56;;;7.91;100.00
13209;BME280;6669;42.678;23.332;2022-10-16T06:41:27;95269.94;;;7.88;100.00
13209;BME280;6669;42.678;23.332;2022-10-16T06:43:56;95289.13;;;8.05;100.00
13209;BME280;6669;42.678;23.332;2022-10-16T06:46:26;95298.06;;;8.21;100.00
13209;BME280;6669;42.678;23.332;2022-10-16T06:48:56;95287.16;;;8.17;100.00
13209;BME280;6669;42.678;23.332;2022-10-16T06:51:24;95312.91;;;8.28;100.00
13209;BME280;6669;42.678;23.332;2022-10-16T06:53:54;95315.88;;;8.43;100.00
13209;BME280;6669;42.678;23.332;2022-10-16T06:56:31;95303.75;;;8.44;100.00
13209;BME280;6669;42.678;23.332;2022-10-16T06:58:59;95324.19;;;8.57;100.00
13209;BME280;6669;42.678;23.332;2022-10-16T07:01:29;95338.06;;;8.65;100.00
13209;BME280;6669;42.678;23.332;2022-10-16T07:03:58;95330.53;;;8.72;100.00
13209;BME280;6669;42.678;23.332;2022-10-16T07:06:30;95333.22;;;8.80;100.00
13209;BME280;6669;42.678;23.332;2022-10-16T07:09:04;95328.16;;;8.79;100.00
13209;BME280;6669;42.678;23.332;2022-10-16T07:11:33;95336.88;;;8.88;100.00
13209;BME280;6669;42.678;23.332;2022-10-16T07:14:02;95328.78;;;8.91;100.00
13209;BME280;6669;42.678;23.332;2022-10-16T07:16:32;95347.44;;;9.04;100.00
13209;BME280;6669;42.678;23.332;2022-10-16T07:19:02;95349.00;;;9.15;100.00
13209;BME280;6669;42.678;23.332;2022-10-16T07:21:32;95350.63;;;9.16;100.00
13209;BME280;6669;42.678;23.332;2022-10-16T07:24:05;95353.56;;;9.31;100.00
13209;BME280;6669;42.678;23.332;2022-10-16T07:26:36;95350.78;;;9.42;100.00
13209;BME280;6669;42.678;23.332;2022-10-16T07:29:07;95357.09;;;9.58;100.00
13209;BME280;6669;42.678;23.332;2022-10-16T07:31:41;95357.03;;;9.68;100.00
13209;BME280;6669;42.678;23.332;2022-10-16T07:34:10;95362.78;;;9.79;100.00
13209;BME280;6669;42.678;23.332;2022-10-16T07:36:38;95368.19;;;9.86;100.00
13209;BME280;6669;42.678;23.332;2022-10-16T07:39:24;95355.59;;;9.91;100.00
13209;BME280;6669;42.678;23.332;2022-10-16T07:41:52;95368.22;;;10.04;100.00
13209;BME280;6669;42.678;23.332;2022-10-16T07:44:20;95359.50;;;10.13;100.00
13209;BME280;6669;42.678;23.332;2022-10-16T07:46:50;95363.16;;;10.21;100.00
13209;BME280;6669;42.678;23.332;2022-10-16T07:49:18;95361.88;;;10.25;100.00
13209;BME280;6669;42.678;23.332;2022-10-16T07:51:46;95371.44;;;10.42;100.00
13209;BME280;6669;42.678;23.332;2022-10-16T07:54:14;95371.16;;;10.54;100.00
13209;BME280;6669;42.678;23.332;2022-10-16T07:56:42;95380.34;;;10.66;100.00
13209;BME280;6669;42.678;23.332;2022-10-16T07:59:10;95373.56;;;10.73;100.00
13209;BME280;6669;42.678;23.332;2022-10-16T08:01:39;95393.00;;;10.87;100.00
13209;BME280;6669;42.678;23.332;2022-10-16T08:04:10;95390.59;;;10.94;100.00
13209;BME280;6669;42.678;23.332;2022-10-16T08:06:40;95391.28;;;11.04;100.00
13209;BME280;6669;42.678;23.332;2022-10-16T08:09:08;95390.38;;;11.22;100.00
13209;BME280;6669;42.678;23.332;2022-10-16T08:11:37;95396.94;;;11.34;100.00
13209;BME280;6669;42.678;23.332;2022-10-16T08:14:05;95400.06;;;11.46;100.00
13209;BME280;6669;42.678;23.332;2022-10-16T08:16:34;95381.84;;;11.46;100.00
13209;BME280;6669;42.678;23.332;2022-10-16T08:19:02;95385.59;;;11.52;100.00
13209;BME280;6669;42.678;23.332;2022-10-16T08:21:33;95381.56;;;11.66;100.00
13209;BME280;6669;42.678;23.332;2022-10-16T08:24:01;95392.00;;;11.82;100.00
13209;BME280;6669;42.678;23.332;2022-10-16T08:26:29;95402.63;;;11.89;100.00
13209;BME280;6669;42.678;23.332;2022-10-16T08:28:58;95379.19;;;11.97;100.00
13209;BME280;6669;42.678;23.332;2022-10-16T08:31:27;95395.16;;;12.19;100.00
13209;BME280;6669;42.678;23.332;2022-10-16T08:33:56;95392.38;;;12.37;100.00
13209;BME280;6669;42.678;23.332;2022-10-16T08:36:24;95396.47;;;12.48;100.00
13209;BME280;6669;42.678;23.332;2022-10-16T08:38:53;95403.28;;;12.65;100.00
13209;BME280;6669;42.678;23.332;2022-10-16T08:41:34;95404.56;;;12.78;100.00
13209;BME280;6669;42.678;23.332;2022-10-16T08:44:22;95392.16;;;12.80;100.00
13209;BME280;6669;42.678;23.332;2022-10-16T08:47:02;95410.06;;;12.99;100.00
13209;BME280;6669;42.678;23.332;2022-10-16T08:49:36;95393.75;;;12.97;100.00
13209;BME280;6669;42.678;23.332;2022-10-16T08:52:10;95410.16;;;13.22;100.00
13209;BME280;6669;42.678;23.332;2022-10-16T08:54:44;95417.78;;;13.32;100.00
13209;BME280;6669;42.678;23.332;2022-10-16T08:57:16;95424.94;;;13.47;100.00
13209;BME280;6669;42.678;23.332;2022-10-16T08:59:50;95417.59;;;13.50;100.00
13209;BME280;6669;42.678;23.332;2022-10-16T09:02:29;95419.66;;;13.63;100.00
13209;BME280;6669;42.678;23.332;2022-10-16T09:05:15;95430.41;;;13.68;100.00
13209;BME280;6669;42.678;23.332;2022-10-16T09:07:52;95425.13;;;13.77;100.00
13209;BME280;6669;42.678;23.332;2022-10-16T09:10:33;95427.41;;;13.80;100.00
13209;BME280;6669;42.678;23.332;2022-10-16T09:13:15;95423.88;;;13.96;100.00
13209;BME280;6669;42.678;23.332;2022-10-16T09:15:49;95429.84;;;14.04;100.00
13209;BME280;6669;42.678;23.332;2022-10-16T09:18:29;95424.22;;;14.16;100.00
13209;BME280;6669;42.678;23.332;2022-10-16T09:21:08;95422.75;;;14.36;100.00
13209;BME280;6669;42.678;23.332;2022-10-16T09:23:38;95424.56;;;14.36;100.00
13209;BME280;6669;42.678;23.332;2022-10-16T09:26:12;95417.41;;;14.53;100.00
13209;BME280;6669;42.678;23.332;2022-10-16T09:28:41;95416.13;;;14.87;100.00
13209;BME280;6669;42.678;23.332;2022-10-16T09:31:15;95428.84;;;15.50;100.00
13209;BME280;6669;42.678;23.332;2022-10-16T09:33:48;95428.91;;;16.23;100.00
13209;BME280;6669;42.678;23.332;2022-10-16T09:36:17;95422.47;;;16.76;100.00
13209;BME280;6669;42.678;23.332;2022-10-16T09:39:06;95431.66;;;17.57;98.26
13209;BME280;6669;42.678;23.332;2022-10-16T09:41:37;95416.53;;;17.65;91.53
13209;BME280;6669;42.678;23.332;2022-10-16T09:44:17;95421.72;;;18.01;88.30
13209;BME280;6669;42.678;23.332;2022-10-16T09:46:47;95422.34;;;18.16;91.81
13209;BME280;6669;42.678;23.332;2022-10-16T09:49:21;95410.47;;;18.54;88.13
13209;BME280;6669;42.678;23.332;2022-10-16T09:51:51;95414.28;;;18.85;84.26
13209;BME280;6669;42.678;23.332;2022-10-16T09:54:20;95404.00;;;18.97;83.42
13209;BME280;6669;42.678;23.332;2022-10-16T09:56:50;95400.16;;;19.58;78.74
13209;BME280;6669;42.678;23.332;2022-10-16T09:59:22;95403.81;;;20.09;76.56
13209;BME280;6669;42.678;23.332;2022-10-16T10:01:54;95410.66;;;20.17;72.47
13209;BME280;6669;42.678;23.332;2022-10-16T10:04:24;95412.97;;;20.06;68.22
13209;BME280;6669;42.678;23.332;2022-10-16T10:06:53;95405.22;;;20.12;69.38
13209;BME280;6669;42.678;23.332;2022-10-16T10:09:25;95401.88;;;20.55;69.02
13209;BME280;6669;42.678;23.332;2022-10-16T10:11:58;95397.81;;;20.52;65.63
13209;BME280;6669;42.678;23.332;2022-10-16T10:14:33;95398.06;;;20.19;66.68
13209;BME280;6669;42.678;23.332;2022-10-16T10:17:30;95397.03;;;19.81;64.92
13209;BME280;6669;42.678;23.332;2022-10-16T10:20:00;95388.13;;;19.75;65.73
13209;BME280;6669;42.678;23.332;2022-10-16T10:22:41;95396.94;;;20.01;65.90
13209;BME280;6669;42.678;23.332;2022-10-16T10:25:30;95387.47;;;20.25;61.84
13209;BME280;6669;42.678;23.332;2022-10-16T10:28:27;95389.41;;;20.62;60.05
13209;BME280;6669;42.678;23.332;2022-10-16T10:31:03;95385.94;;;20.94;60.46
13209;BME280;6669;42.678;23.332;2022-10-16T10:33:41;95374.06;;;20.78;61.64
13209;BME280;6669;42.678;23.332;2022-10-16T10:36:16;95372.25;;;20.97;60.57
13209;BME280;6669;42.678;23.332;2022-10-16T10:38:52;95369.84;;;21.14;63.18
13209;BME280;6669;42.678;23.332;2022-10-16T10:41:43;95372.84;;;21.17;61.98
13209;BME280;6669;42.678;23.332;2022-10-16T10:44:24;95368.28;;;21.43;59.46
13209;BME280;6669;42.678;23.332;2022-10-16T10:46:56;95371.06;;;21.48;58.52
13209;BME280;6669;42.678;23.332;2022-10-16T10:49:39;95363.13;;;21.85;58.04
13209;BME280;6669;42.678;23.332;2022-10-16T10:52:30;95364.00;;;22.10;55.82
13209;BME280;6669;42.678;23.332;2022-10-16T10:55:10;95358.63;;;22.16;56.49
13209;BME280;6669;42.678;23.332;2022-10-16T10:57:56;95351.56;;;22.10;58.93
13209;BME280;6669;42.678;23.332;2022-10-16T11:00:39;95358.75;;;22.21;56.69
13209;BME280;6669;42.678;23.332;2022-10-16T11:03:24;95342.34;;;22.55;54.21
13209;BME280;6669;42.678;23.332;2022-10-16T11:06:05;95353.53;;;22.69;53.59
13209;BME280;6669;42.678;23.332;2022-10-16T11:08:36;95348.91;;;22.76;52.49
13209;BME280;6669;42.678;23.332;2022-10-16T11:11:11;95352.84;;;22.97;54.84
13209;BME280;6669;42.678;23.332;2022-10-16T11:13:46;95350.97;;;22.98;55.38
13209;BME280;6669;42.678;23.332;2022-10-16T11:16:22;95339.81;;;22.72;54.36
13209;BME280;6669;42.678;23.332;2022-10-16T11:18:58;95342.44;;;22.60;55.96
13209;BME280;6669;42.678;23.332;2022-10-16T11:21:30;95333.59;;;22.55;56.55
13209;BME280;6669;42.678;23.332;2022-10-16T11:24:08;95328.09;;;22.14;54.74
13209;BME280;6669;42.678;23.332;2022-10-16T11:26:41;95325.44;;;22.14;56.22
13209;BME280;6669;42.678;23.332;2022-10-16T11:29:15;95327.72;;;22.41;56.30
13209;BME280;6669;42.678;23.332;2022-10-16T11:31:50;95328.53;;;22.89;53.87
13209;BME280;6669;42.678;23.332;2022-10-16T11:34:23;95335.53;;;22.47;53.08
13209;BME280;6669;42.678;23.332;2022-10-16T11:37:02;95331.06;;;22.83;53.28
13209;BME280;6669;42.678;23.332;2022-10-16T11:39:33;95341.28;;;23.27;54.18
13209;BME280;6669;42.678;23.332;2022-10-16T11:42:05;95332.78;;;23.54;53.71
13209;BME280;6669;42.678;23.332;2022-10-16T11:44:48;95335.50;;;23.71;52.69
13209;BME280;6669;42.678;23.332;2022-10-16T11:47:29;95339.41;;;23.40;52.32
13209;BME280;6669;42.678;23.332;2022-10-16T11:50:23;95334.84;;;23.11;54.80
13209;BME280;6669;42.678;23.332;2022-10-16T11:52:58;95327.91;;;23.63;52.11
13209;BME280;6669;42.678;23.332;2022-10-16T11:55:31;95334.97;;;23.16;53.93
13209;BME280;6669;42.678;23.332;2022-10-16T11:58:05;95341.66;;;23.60;54.62
13209;BME280;6669;42.678;23.332;2022-10-16T12:00:40;95334.00;;;23.63;53.23
13209;BME280;6669;42.678;23.332;2022-10-16T12:03:18;95339.06;;;23.36;53.49
13209;BME280;6669;42.678;23.332;2022-10-16T12:06:06;95336.88;;;23.74;51.97
13209;BME280;6669;42.678;23.332;2022-10-16T12:08:40;95324.75;;;23.78;51.30
13209;BME280;6669;42.678;23.332;2022-10-16T12:11:20;95326.44;;;23.84;52.39
13209;BME280;6669;42.678;23.332;2022-10-16T12:13:50;95334.16;;;23.86;52.40
13209;BME280;6669;42.678;23.332;2022-10-16T12:16:23;95329.91;;;24.13;52.15
13209;BME280;6669;42.678;23.332;2022-10-16T12:19:12;95337.38;;;24.51;53.42
13209;BME280;6669;42.678;23.332;2022-10-16T12:21:41;95332.97;;;24.39;51.89
13209;BME280;6669;42.678;23.332;2022-10-16T12:24:21;95331.34;;;24.55;50.24
13209;BME280;6669;42.678;23.332;2022-10-16T12:26:54;95333.44;;;24.53;50.06
13209;BME280;6669;42.678;23.332;2022-10-16T12:29:33;95333.03;;;24.61;49.92
13209;BME280;6669;42.678;23.332;2022-10-16T12:32:03;95329.25;;;24.57;50.39
13209;BME280;6669;42.678;23.332;2022-10-16T12:34:38;95332.88;;;24.51;51.57
13209;BME280;6669;42.678;23.332;2022-10-16T12:37:10;95322.66;;;24.43;52.57
13209;BME280;6669;42.678;23.332;2022-10-16T12:39:39;95332.22;;;24.78;49.78
13209;BME280;6669;42.678;23.332;2022-10-16T12:42:23;95335.13;;;24.59;50.46
13209;BME280;6669;42.678;23.332;2022-10-16T12:44:58;95333.69;;;24.69;50.23
13209;BME280;6669;42.678;23.332;2022-10-16T12:47:38;95335.06;;;24.71;50.78
13209;BME280;6669;42.678;23.332;2022-10-16T12:53:17;95325.22;;;24.89;50.73
13209;BME280;6669;42.678;23.332;2022-10-16T12:55:53;95347.06;;;24.91;50.27
13209;BME280;6669;42.678;23.332;2022-10-16T12:58:37;95319.28;;;24.47;50.52
13209;BME280;6669;42.678;23.332;2022-10-16T13:01:39;95337.06;;;24.30;51.08
13209;BME280;6669;42.678;23.332;2022-10-16T13:04:31;95334.16;;;24.31;51.24
13209;BME280;6669;42.678;23.332;2022-10-16T13:07:23;95331.34;;;24.55;52.47
13209;BME280;6669;42.678;23.332;2022-10-16T13:10:11;95334.72;;;25.24;50.66
13209;BME280;6669;42.678;23.332;2022-10-16T13:15:56;95337.97;;;25.31;48.00
13209;BME280;6669;42.678;23.332;2022-10-16T13:18:36;95334.28;;;25.32;47.25
13209;BME280;6669;42.678;23.332;2022-10-16T13:21:20;95333.97;;;25.28;48.01
13209;BME280;6669;42.678;23.332;2022-10-16T13:24:02;95331.72;;;25.37;48.72
13209;BME280;6669;42.678;23.332;2022-10-16T13:26:52;95337.25;;;24.74;49.11
13209;BME280;6669;42.678;23.332;2022-10-16T13:29:38;95333.91;;;24.84;49.12
13209;BME280;6669;42.678;23.332;2022-10-16T13:32:21;95334.28;;;25.32;48.83